ROMMA est une association bénévole à but non lucratif. Votre soutien est indispensable : ADHERER à ROMMA ou FAIRE un DON

Trept - (38, Isère)

Plateau de Crémieu (265 m)   Longitude: 5° 19' 27" E   Latitude: 45° 41' 15"N Station partenaire n°94
 

Détail journalier du     <<     >>

Température Precipitation Humidité Pression Vent Dir Rafale Dir. rafale
Heure (°C) (mm) (%) (hPa) (km/h) (km/h)
01:00 15.906410202NE6NNE
02:00 15.206710202SSE6ONO
03:00 14.207010212OSO8OSO
04:00 13.207510212NO6NNO
05:00 12.707710213O10O
06:00 11.807910214ONO10O
07:00 11.308010222OSO6OSO
08:00 11.408010232O6OSO
09:00 13.807310232NO10O
10:00 15.906710233ONO13O
11:00 18.206110233O11O
12:00 19.705810234OSO13OSO
13:00 22.504910235O16NE
14:00 23.804710225NE18NNO
15:00 25.104410226NNE21NE
16:00 25.904310217NNE21NE
17:00 26.404010206NE21NNE
18:00 25.504010207NNE24NNE
19:00 24.804110206NE21NO
20:00 22.204410204NE18NNO
21:00 20.604710203N13NNE
22:00 19.405110203NNE10NE
23:00 18.405510202ENE8NE
minuit 17.606010201NO5NO

Graphique du 03-09-2019

 

Serveur OMMA